»·PEaware :: N46299 KLAX-KSAN

N46299 :: KLAX-KSAN

FLIGHT INFORMATION

Flight Status: Arrived
Operator: Privately registered:
United States
More flights under this callsign
Pilot: Victor C. (32144)
Aircraft: CESSNA 172 SKYHAWK
(C172)
More flights by this aircraft type
Origin: KLAX Los Angeles Intl
United States
Destination: KSAN San Diego Intl-Lindbergh
United States
More flights between these airports :: More routes between these airports
Route:
File this flight plan on PilotEdge
Remarks: CAT 11
Altitude:
(Current/Filed)
5,500ft
Speed:
(Current/Filed)
110kts
Departed: 31-Dec-20 09:10 AM
Arrived: 31-Dec-20 10:14 AM
Distance/Time
Traveled:
95nm/1:04
Distance/Time
To Go:
Arrived

Flight Plot

Page will automatically refresh every two minutes.


Map Options




Map Legend


Flown Route
Filed Route
Departure Airport
Arrival Airport
Navaid (VOR, NDB)
Fix

Horizontal Profiles

Position Reports

Time Latitude Longitude Heading Altitude Ground
Speed
31-Dec-20 08:23 33.932726 -118.399033 74 120ft 0kts
31-Dec-20 08:24 33.932726 -118.399033 74 120ft 0kts
31-Dec-20 08:25 33.932726 -118.399033 74 120ft 0kts
31-Dec-20 08:26 33.932726 -118.399033 74 120ft 0kts
31-Dec-20 08:27 33.932726 -118.399033 74 120ft 0kts
31-Dec-20 08:28 33.932726 -118.399033 74 120ft 0kts
31-Dec-20 08:29 33.932726 -118.399034 74 120ft 0kts
31-Dec-20 08:30 33.932726 -118.399034 74 120ft 0kts
31-Dec-20 08:31 33.932726 -118.399034 74 120ft 0kts
31-Dec-20 08:32 33.932726 -118.399034 73 120ft 0kts
31-Dec-20 08:32 33.932726 -118.399034 73 120ft 0kts
31-Dec-20 08:34 33.932726 -118.399034 73 120ft 0kts
31-Dec-20 08:34 33.932726 -118.399034 73 120ft 0kts
31-Dec-20 08:36 33.932726 -118.399034 73 120ft 0kts
31-Dec-20 08:36 33.932726 -118.399034 73 120ft 0kts
31-Dec-20 08:37 33.932726 -118.399034 73 120ft 0kts
31-Dec-20 08:38 33.932726 -118.399034 73 120ft 0kts
31-Dec-20 08:39 33.932726 -118.399034 73 120ft 0kts
31-Dec-20 08:40 33.932726 -118.399034 73 120ft 0kts
31-Dec-20 08:41 33.932726 -118.399034 73 120ft 0kts
31-Dec-20 08:42 33.932726 -118.399034 73 120ft 0kts
31-Dec-20 08:43 33.932726 -118.399034 73 120ft 0kts
31-Dec-20 08:44 33.932726 -118.399034 73 120ft 0kts
31-Dec-20 08:45 33.932726 -118.399034 73 120ft 0kts
31-Dec-20 08:46 33.932726 -118.399034 73 120ft 0kts
31-Dec-20 08:47 33.932726 -118.399034 73 120ft 0kts
31-Dec-20 08:48 33.932726 -118.399034 73 120ft 0kts
31-Dec-20 08:49 33.932726 -118.399034 73 120ft 0kts
31-Dec-20 08:50 33.932726 -118.399034 73 120ft 0kts
31-Dec-20 08:51 33.932726 -118.399034 73 120ft 0kts
31-Dec-20 08:52 33.932726 -118.399034 73 120ft 0kts
31-Dec-20 08:53 33.932726 -118.399034 73 120ft 0kts
31-Dec-20 08:54 33.932726 -118.399034 73 120ft 0kts
31-Dec-20 08:55 33.932726 -118.399034 73 120ft 0kts
31-Dec-20 08:56 33.932726 -118.399035 73 120ft 0kts
31-Dec-20 08:57 33.932726 -118.399035 73 120ft 0kts
31-Dec-20 08:58 33.932726 -118.399035 73 120ft 0kts
31-Dec-20 08:59 33.932726 -118.399035 73 120ft 0kts
31-Dec-20 09:00 33.932730 -118.399020 71 120ft 2kts
31-Dec-20 09:01 33.934628 -118.397426 84 120ft 12kts
31-Dec-20 09:02 33.935357 -118.390368 82 120ft 28kts
31-Dec-20 09:03 33.936096 -118.383162 72 120ft 6kts
31-Dec-20 09:04 33.936434 -118.382774 358 120ft 0kts
31-Dec-20 09:05 33.936434 -118.382774 358 120ft 0kts
31-Dec-20 09:06 33.936434 -118.382774 358 120ft 0kts
31-Dec-20 09:07 33.936434 -118.382774 358 120ft 0kts
31-Dec-20 09:08 33.936433 -118.382774 358 120ft 0kts
31-Dec-20 09:09 33.936920 -118.387319 263 120ft 63kts
31-Dec-20 09:10 33.933569 -118.417103 263 449ft 95kts
31-Dec-20 09:11 33.918323 -118.430940 155 827ft 93kts
31-Dec-20 09:12 33.895346 -118.417736 154 1276ft 91kts
31-Dec-20 09:13 33.871290 -118.403131 138 1324ft 101kts
31-Dec-20 09:15 33.845250 -118.381184 143 1745ft 93kts
31-Dec-20 09:15 33.828129 -118.369090 147 2450ft 83kts
31-Dec-20 09:16 33.811562 -118.347620 127 3086ft 90kts
31-Dec-20 09:17 33.795330 -118.325115 123 3643ft 103kts
31-Dec-20 09:18 33.779028 -118.296510 129 3821ft 93kts
31-Dec-20 09:19 33.762044 -118.270594 133 4334ft 97kts
31-Dec-20 09:20 33.747085 -118.245753 98 5000ft 88kts
31-Dec-20 09:21 33.744067 -118.215958 77 5471ft 101kts
31-Dec-20 09:22 33.749980 -118.180075 82 5583ft 117kts
31-Dec-20 09:23 33.745134 -118.144871 127 5514ft 114kts
31-Dec-20 09:24 33.723609 -118.117643 132 5578ft 113kts
31-Dec-20 09:25 33.703803 -118.088009 123 5580ft 114kts
31-Dec-20 09:26 33.686177 -118.056253 122 5580ft 114kts
31-Dec-20 09:27 33.667956 -118.025002 122 5581ft 114kts
31-Dec-20 09:28 33.649601 -117.993739 122 5581ft 114kts
31-Dec-20 09:29 33.631452 -117.962822 122 5580ft 114kts
31-Dec-20 09:30 33.613216 -117.931698 122 5581ft 114kts
31-Dec-20 09:31 33.594884 -117.900370 122 5580ft 114kts
31-Dec-20 09:32 33.573519 -117.871868 132 5574ft 114kts
31-Dec-20 09:33 33.552038 -117.844023 132 5552ft 112kts
31-Dec-20 09:34 33.530877 -117.816560 132 5551ft 112kts
31-Dec-20 09:35 33.511364 -117.787537 123 5552ft 112kts
31-Dec-20 09:36 33.493836 -117.755110 122 5552ft 118kts
31-Dec-20 09:37 33.474606 -117.723074 131 5551ft 118kts
31-Dec-20 09:38 33.452445 -117.693905 132 5552ft 119kts
31-Dec-20 09:39 33.430978 -117.665939 132 5943ft 109kts
31-Dec-20 09:40 33.414522 -117.639954 122 6623ft 88kts
31-Dec-20 09:41 33.401622 -117.615686 122 7151ft 83kts
31-Dec-20 09:42 33.389571 -117.592761 122 7529ft 89kts
31-Dec-20 09:43 33.374090 -117.563538 122 7578ft 115kts
31-Dec-20 09:44 33.353819 -117.532835 138 7576ft 119kts
31-Dec-20 09:45 33.327651 -117.508050 145 7579ft 120kts
31-Dec-20 09:46 33.298426 -117.488546 152 7580ft 120kts
31-Dec-20 09:47 33.269951 -117.467909 143 7580ft 120kts
31-Dec-20 09:48 33.243384 -117.443808 142 7580ft 120kts
31-Dec-20 09:49 33.216852 -117.419492 142 7581ft 120kts
31-Dec-20 09:50 33.190308 -117.395153 142 7422ft 119kts
31-Dec-20 09:51 33.164208 -117.371233 142 7064ft 117kts
31-Dec-20 09:52 33.138541 -117.347713 142 6554ft 116kts
31-Dec-20 09:53 33.112574 -117.323932 142 5871ft 119kts
31-Dec-20 09:54 33.088245 -117.301653 142 5567ft 97kts
31-Dec-20 09:55 33.061611 -117.291873 181 4834ft 108kts
31-Dec-20 09:56 33.032064 -117.295442 189 4029ft 107kts
31-Dec-20 09:57 33.004119 -117.295247 166 3578ft 88kts
31-Dec-20 09:58 32.979877 -117.287281 162 3190ft 92kts
31-Dec-20 09:59 32.956007 -117.281761 181 2773ft 95kts
31-Dec-20 10:00 32.957129 -117.282877 169 1780ft 94kts
31-Dec-20 10:02 32.931509 -117.282467 177 1660ft 94kts
31-Dec-20 10:03 32.905106 -117.281142 175 1664ft 94kts
31-Dec-20 10:04 32.878991 -117.278593 172 1680ft 94kts
31-Dec-20 10:05 32.853220 -117.272849 163 1681ft 94kts
31-Dec-20 10:06 32.831076 -117.257982 132 1677ft 93kts
31-Dec-20 10:07 32.813304 -117.235274 132 1683ft 94kts
31-Dec-20 10:08 32.792009 -117.217689 154 1629ft 91kts
31-Dec-20 10:09 32.768251 -117.208159 161 1435ft 87kts
31-Dec-20 10:10 32.751813 -117.190895 110 1195ft 86kts
31-Dec-20 10:11 32.747531 -117.166230 102 1153ft 72kts
31-Dec-20 10:12 32.737107 -117.153897 217 843ft 92kts
31-Dec-20 10:13 32.730900 -117.178742 287 107ft 77kts
31-Dec-20 10:14 32.734573 -117.190838 26 17ft 12kts
31-Dec-20 10:15 32.734749 -117.190665 59 17ft 0kts
31-Dec-20 10:16 32.733882 -117.186224 105 18ft 12kts
31-Dec-20 10:17 32.732554 -117.180773 106 18ft 16kts
31-Dec-20 10:18 32.733771 -117.179790 283 21ft 0kts

Navigation Log

Ident Type
Flight plan parsing failed, navigation log unavailable